Time;durP1;ratioP1;P1;durP2;ratioP2;P2;SDS_P1;SDS_P2;PMS_P1;PMS_P2;Temp;Humidity;BMP_temperature;BMP_pressure;BME280_temperature;BME280_humidity;BME280_pressure;Samples;Min_cycle;Max_cycle;Signal;HPM_P1;HPM_P2
2022/04/26 03:37:34;;;;;;;22.35;16.58;;;8.00;99.90;;;;;;4969238;28;20059;-89
2022/04/26 03:40:00;;;;;;;21.95;16.02;;;8.00;99.90;;;;;;4980311;28;20061;-89
2022/04/26 03:42:25;;;;;;;22.98;16.20;;;8.00;99.90;;;;;;4976301;28;20133;-89
2022/04/26 03:44:51;;;;;;;21.90;11.30;;;8.00;99.90;;;;;;4942190;28;20051;-88
2022/04/26 03:47:17;;;;;;;18.02;11.23;;;7.90;99.90;;;;;;4970107;28;20057;-90
2022/04/26 03:49:42;;;;;;;18.38;10.65;;;7.90;99.90;;;;;;4988596;28;20109;-88
2022/04/26 03:52:08;;;;;;;21.40;13.70;;;7.90;99.90;;;;;;4953889;28;20055;-92
2022/04/26 03:54:34;;;;;;;20.23;13.25;;;7.80;99.90;;;;;;4949613;28;20400;-89
2022/04/26 03:56:59;;;;;;;20.67;15.55;;;7.80;99.90;;;;;;4935227;29;20047;-89
2022/04/26 03:59:25;;;;;;;19.92;15.43;;;7.80;99.90;;;;;;4954267;28;20066;-90
2022/04/26 04:01:51;;;;;;;19.13;11.75;;;7.80;99.90;;;;;;4971754;28;20047;-89
2022/04/26 04:04:16;;;;;;;17.58;9.10;;;7.80;99.90;;;;;;4937328;28;20145;-90
2022/04/26 04:06:42;;;;;;;19.90;15.13;;;7.70;99.90;;;;;;4959725;28;20104;-89
2022/04/26 04:09:07;;;;;;;19.20;11.10;;;7.80;99.90;;;;;;4971993;28;20054;-88
2022/04/26 04:11:33;;;;;;;19.83;8.75;;;7.70;99.90;;;;;;5023538;28;20056;-87
2022/04/26 04:13:59;;;;;;;21.20;15.35;;;7.70;99.90;;;;;;5063451;28;20041;-88
2022/04/26 04:16:24;;;;;;;17.35;10.35;;;7.70;99.90;;;;;;5045260;28;20071;-89
2022/04/26 04:21:34;;;;;;;18.13;10.90;;;7.70;99.90;;;;;;5050986;28;20449;-86
2022/04/26 04:24:00;;;;;;;21.25;10.98;;;7.70;99.90;;;;;;5057367;28;20037;-88
2022/04/26 04:26:25;;;;;;;20.50;15.02;;;7.70;99.90;;;;;;5031782;28;20037;-88
2022/04/26 04:28:51;;;;;;;20.13;11.63;;;7.70;99.90;;;;;;5014548;28;20044;-86
2022/04/26 04:31:16;;;;;;;18.40;10.00;;;7.70;99.90;;;;;;5045582;28;20041;-86
2022/04/26 04:33:45;;;;;;;17.52;9.68;;;7.70;99.90;;;;;;5031829;28;20041;-87
2022/04/26 04:36:11;;;;;;;17.77;14.00;;;7.70;99.90;;;;;;5044399;28;20059;-89
2022/04/26 04:38:37;;;;;;;17.45;11.02;;;7.80;99.90;;;;;;5052077;28;20044;-89
2022/04/26 04:41:02;;;;;;;18.77;9.25;;;7.70;99.90;;;;;;5052424;28;20044;-87
2022/04/26 04:43:28;;;;;;;19.98;14.70;;;7.70;99.90;;;;;;5054486;28;20098;-89
2022/04/26 04:45:53;;;;;;;20.45;9.80;;;7.80;99.90;;;;;;5042908;28;20040;-84
2022/04/26 04:48:19;;;;;;;17.35;11.18;;;7.80;99.90;;;;;;5034007;28;20045;-87
2022/04/26 04:50:45;;;;;;;17.23;10.60;;;7.80;99.90;;;;;;5061387;28;20037;-88
2022/04/26 04:53:10;;;;;;;19.23;11.07;;;7.80;99.90;;;;;;5035003;28;20041;-88
2022/04/26 04:55:39;;;;;;;20.00;10.30;;;7.80;99.90;;;;;;5049834;28;20175;-86
2022/04/26 04:58:06;;;;;;;17.67;10.02;;;7.80;99.90;;;;;;5047774;28;20393;-86
2022/04/26 05:00:31;;;;;;;16.52;9.60;;;7.80;99.90;;;;;;5020096;28;20060;-88
2022/04/26 05:02:58;;;;;;;21.67;13.20;;;7.80;99.90;;;;;;5035562;28;20147;-87
2022/04/26 05:05:23;;;;;;;19.42;10.57;;;7.90;99.90;;;;;;5047292;28;20099;-88
2022/04/26 05:07:50;;;;;;;13.82;9.60;;;7.80;99.90;;;;;;5051369;28;20048;-88
2022/04/26 05:10:15;;;;;;;15.80;9.27;;;7.80;99.90;;;;;;5040264;28;20106;-89
2022/04/26 05:12:41;;;;;;;17.98;10.48;;;7.80;99.90;;;;;;5029181;28;20037;-87
2022/04/26 05:15:07;;;;;;;21.20;13.15;;;7.80;99.90;;;;;;5026016;28;20089;-88
2022/04/26 05:17:32;;;;;;;17.35;12.52;;;7.90;99.90;;;;;;5026630;28;20076;-86
2022/04/26 05:19:58;;;;;;;18.88;9.75;;;7.90;99.90;;;;;;5039992;28;20431;-88
2022/04/26 05:22:24;;;;;;;18.63;9.82;;;7.90;99.90;;;;;;5032017;28;20048;-87
2022/04/26 05:24:56;;;;;;;16.25;8.55;;;7.90;99.90;;;;;;5036752;28;20049;-89
2022/04/26 05:27:31;;;;;;;18.10;12.23;;;7.90;99.90;;;;;;5034954;28;20040;-87
2022/04/26 05:29:57;;;;;;;17.10;10.07;;;8.00;99.90;;;;;;5046223;28;20033;-89
2022/04/26 05:32:27;;;;;;;21.83;12.13;;;8.00;99.90;;;;;;5032941;28;20056;-86
2022/04/26 05:35:01;;;;;;;18.85;10.30;;;8.00;99.90;;;;;;5006405;28;20065;-87
2022/04/26 05:37:27;;;;;;;15.18;7.38;;;8.00;99.90;;;;;;5032700;28;20083;-87
2022/04/26 05:39:53;;;;;;;16.00;11.63;;;8.00;99.90;;;;;;5059001;28;20091;-85
2022/04/26 05:42:18;;;;;;;16.65;10.85;;;8.10;99.90;;;;;;5045866;28;20041;-86
2022/04/26 05:44:44;;;;;;;14.23;7.75;;;8.10;99.90;;;;;;5021067;28;20033;-86
2022/04/26 05:47:10;;;;;;;15.70;8.65;;;8.10;99.90;;;;;;5042815;28;20049;-89
2022/04/26 05:49:36;;;;;;;19.50;10.68;;;8.00;99.90;;;;;;5052277;28;20735;-88
2022/04/26 05:52:05;;;;;;;16.98;10.27;;;8.10;99.90;;;;;;5045906;28;20051;-88
2022/04/26 05:54:31;;;;;;;13.85;7.80;;;8.10;99.90;;;;;;5047126;28;20049;-86
2022/04/26 05:56:57;;;;;;;15.75;7.95;;;8.10;99.90;;;;;;5037765;28;20037;-87
2022/04/26 05:59:23;;;;;;;16.52;9.77;;;8.10;99.90;;;;;;5053904;28;20045;-88
2022/04/26 06:01:49;;;;;;;15.93;8.63;;;8.10;99.90;;;;;;5021454;28;20374;-90
2022/04/26 06:04:15;;;;;;;18.10;7.13;;;8.10;99.90;;;;;;5029444;28;20426;-88
2022/04/26 06:06:41;;;;;;;15.07;7.88;;;8.10;99.90;;;;;;5040240;28;20045;-88
2022/04/26 06:09:07;;;;;;;16.95;10.65;;;8.10;99.90;;;;;;5042345;28;20120;-87
2022/04/26 06:11:33;;;;;;;14.52;9.27;;;8.20;99.90;;;;;;5052646;28;20041;-91
2022/04/26 06:14:00;;;;;;;17.98;9.52;;;8.30;99.90;;;;;;5051002;28;20099;-87
2022/04/26 06:16:26;;;;;;;14.40;6.28;;;8.30;99.90;;;;;;5047349;28;20037;-88
2022/04/26 06:18:51;;;;;;;15.73;6.82;;;8.20;99.90;;;;;;5040954;28;20075;-90
2022/04/26 06:21:17;;;;;;;14.85;9.30;;;8.20;99.90;;;;;;5051770;28;20083;-88
2022/04/26 06:23:42;;;;;;;18.50;9.07;;;8.20;99.90;;;;;;5042029;28;20049;-89
2022/04/26 06:26:08;;;;;;;17.85;8.27;;;8.30;99.90;;;;;;5051721;28;20048;-88
2022/04/26 06:28:34;;;;;;;12.40;8.60;;;8.30;99.90;;;;;;5057511;28;20044;-89
2022/04/26 06:31:00;;;;;;;13.65;6.88;;;8.40;99.90;;;;;;5028757;28;20033;-89
2022/04/26 06:33:26;;;;;;;14.75;6.35;;;8.40;99.90;;;;;;5034841;28;20057;-88
2022/04/26 06:35:52;;;;;;;13.93;7.97;;;8.40;99.90;;;;;;5064967;28;20056;-88
2022/04/26 06:38:18;;;;;;;15.18;7.80;;;8.50;99.90;;;;;;5056155;28;20045;-91
2022/04/26 06:40:46;;;;;;;12.50;6.63;;;8.50;99.90;;;;;;5037459;28;20063;-91
2022/04/26 06:43:12;;;;;;;13.73;6.40;;;8.60;99.90;;;;;;5049558;28;20037;-93
2022/04/26 06:45:37;;;;;;;11.93;5.90;;;8.60;99.90;;;;;;5060007;28;20044;-93
2022/04/26 06:48:13;;;;;;;10.85;6.72;;;8.70;99.90;;;;;;5061538;28;20048;-90
2022/04/26 06:50:40;;;;;;;12.07;6.80;;;8.80;99.90;;;;;;5034859;28;20037;-92
2022/04/26 06:53:06;;;;;;;16.58;5.55;;;9.00;99.90;;;;;;5035577;28;20051;-88
2022/04/26 06:55:32;;;;;;;11.57;6.57;;;9.00;99.90;;;;;;5032235;28;20559;-91
2022/04/26 06:57:57;;;;;;;11.68;6.38;;;9.20;99.90;;;;;;5036305;28;20045;-91
2022/04/26 07:00:25;;;;;;;15.48;6.72;;;9.40;99.90;;;;;;5051886;28;20056;-90
2022/04/26 07:02:50;;;;;;;12.40;6.82;;;9.50;99.90;;;;;;5044212;28;20048;-91
2022/04/26 07:05:16;;;;;;;13.68;6.57;;;9.70;99.90;;;;;;5032137;28;20089;-91
2022/04/26 07:07:42;;;;;;;12.75;6.43;;;9.70;99.90;;;;;;5053292;28;20432;-90
2022/04/26 07:10:08;;;;;;;11.90;6.07;;;9.80;99.90;;;;;;5064221;28;20025;-91
2022/04/26 07:12:34;;;;;;;12.00;5.93;;;9.90;99.90;;;;;;5042622;28;20124;-90
2022/04/26 07:15:00;;;;;;;11.05;5.45;;;10.00;99.90;;;;;;5039439;28;20124;-88
2022/04/26 07:17:26;;;;;;;9.82;5.38;;;10.00;99.90;;;;;;5039744;28;20049;-91
2022/04/26 07:19:52;;;;;;;10.48;5.10;;;10.10;99.90;;;;;;5055224;28;20043;-90
2022/04/26 07:22:17;;;;;;;11.40;5.60;;;10.10;99.90;;;;;;5042885;28;20061;-89
2022/04/26 07:24:44;;;;;;;12.55;5.70;;;10.10;99.90;;;;;;5045138;28;20053;-86
2022/04/26 07:27:10;;;;;;;13.00;5.78;;;10.10;99.90;;;;;;5045391;28;20145;-86
2022/04/26 07:29:36;;;;;;;11.23;5.88;;;10.00;99.90;;;;;;5048579;28;20043;-85
2022/04/26 07:32:03;;;;;;;11.35;5.60;;;10.00;99.90;;;;;;5048882;28;20041;-87
2022/04/26 07:34:29;;;;;;;9.73;5.13;;;10.00;99.90;;;;;;5048666;28;20703;-86
2022/04/26 07:36:59;;;;;;;12.27;4.93;;;10.00;99.90;;;;;;5028942;28;20048;-84
2022/04/26 07:39:25;;;;;;;12.33;5.73;;;9.90;99.90;;;;;;5031416;28;20045;-84
2022/04/26 07:41:51;;;;;;;11.80;5.45;;;9.80;99.90;;;;;;5041922;28;20049;-84
2022/04/26 07:44:17;;;;;;;10.35;5.75;;;9.70;99.90;;;;;;5044758;28;20090;-85
2022/04/26 07:46:45;;;;;;;9.95;5.68;;;9.70;99.90;;;;;;5016612;28;20072;-86
2022/04/26 07:49:11;;;;;;;10.93;5.95;;;9.60;99.90;;;;;;5059204;28;20438;-87
2022/04/26 07:51:37;;;;;;;9.95;5.72;;;9.80;99.90;;;;;;5062652;28;20040;-86
2022/04/26 07:54:03;;;;;;;11.70;5.85;;;9.90;99.90;;;;;;5034152;28;20477;-86
2022/04/26 07:56:29;;;;;;;12.55;6.07;;;10.00;99.90;;;;;;5032569;28;20049;-88
2022/04/26 07:58:58;;;;;;;9.88;5.13;;;10.00;99.90;;;;;;5049876;28;20055;-88
2022/04/26 08:01:24;;;;;;;12.05;5.32;;;10.10;99.90;;;;;;5019469;28;20045;-87
2022/04/26 08:03:49;;;;;;;9.70;4.47;;;10.00;99.90;;;;;;5053843;28;20041;-86
2022/04/26 08:06:15;;;;;;;10.02;4.45;;;10.00;99.90;;;;;;5016483;28;20196;-88
2022/04/26 08:08:41;;;;;;;11.23;4.78;;;10.00;99.90;;;;;;5049507;28;20076;-87
2022/04/26 08:11:11;;;;;;;9.43;4.43;;;10.00;99.90;;;;;;5049642;28;20041;-88
2022/04/26 08:13:37;;;;;;;8.60;3.97;;;10.10;99.90;;;;;;5039684;28;20095;-87
2022/04/26 08:16:04;;;;;;;8.38;4.03;;;10.20;99.90;;;;;;5032971;28;20033;-89
2022/04/26 08:18:30;;;;;;;9.35;4.30;;;10.30;99.90;;;;;;5049817;28;20428;-88
2022/04/26 08:20:55;;;;;;;9.82;3.85;;;10.30;99.90;;;;;;5031774;28;20049;-89
2022/04/26 08:23:21;;;;;;;10.43;4.35;;;10.30;99.90;;;;;;5050734;28;20048;-89
2022/04/26 08:28:33;;;;;;;10.40;4.35;;;10.60;99.90;;;;;;5050543;28;20056;-89
2022/04/26 08:31:00;;;;;;;11.25;4.63;;;10.70;99.90;;;;;;5050323;28;20446;-90
2022/04/26 08:33:26;;;;;;;9.30;4.10;;;10.90;99.90;;;;;;5032375;28;20049;-90
2022/04/26 08:35:52;;;;;;;9.20;4.10;;;10.80;99.90;;;;;;5031682;28;20128;-88
2022/04/26 08:38:18;;;;;;;10.90;4.43;;;10.80;99.90;;;;;;5032159;28;20493;-89
2022/04/26 08:40:43;;;;;;;9.98;3.92;;;10.80;99.90;;;;;;5049242;28;20045;-90
2022/04/26 08:43:09;;;;;;;11.18;4.57;;;10.70;99.90;;;;;;5050118;28;20037;-88
2022/04/26 08:45:40;;;;;;;9.63;4.15;;;10.70;99.90;;;;;;5050557;28;20073;-91
2022/04/26 08:51:00;;;;;;;10.95;4.10;;;10.70;99.90;;;;;;5049440;28;20063;-88
2022/04/26 08:53:27;;;;;;;7.55;3.70;;;10.80;99.90;;;;;;5015508;28;20041;-88
2022/04/26 08:55:59;;;;;;;9.48;4.20;;;10.90;99.90;;;;;;5064389;28;20504;-88
2022/04/26 08:58:25;;;;;;;9.30;4.35;;;11.00;99.90;;;;;;5065347;28;20037;-89
2022/04/26 09:01:14;;;;;;;9.20;3.92;;;11.20;99.90;;;;;;5049603;28;20330;-88
2022/04/26 09:03:54;;;;;;;10.32;4.50;;;11.40;99.90;;;;;;5049823;28;20082;-90
2022/04/26 09:06:33;;;;;;;8.98;3.78;;;11.60;99.90;;;;;;5031723;28;20461;-90
2022/04/26 09:09:08;;;;;;;8.95;3.50;;;11.70;99.90;;;;;;5049137;28;20132;-88
2022/04/26 09:11:34;;;;;;;10.70;4.00;;;11.60;99.90;;;;;;5035090;28;20025;-89
2022/04/26 09:14:02;;;;;;;8.65;3.70;;;11.70;99.90;;;;;;5043289;28;20072;-89
2022/04/26 09:16:28;;;;;;;8.18;4.07;;;11.70;99.90;;;;;;5049294;28;20037;-89
2022/04/26 09:18:59;;;;;;;10.88;4.35;;;11.80;99.90;;;;;;5014940;28;20044;-90
2022/04/26 09:21:27;;;;;;;8.38;3.92;;;11.90;99.90;;;;;;5031852;28;20083;-90
2022/04/26 09:24:04;;;;;;;8.20;4.28;;;11.80;99.90;;;;;;5048297;28;20519;-88
2022/04/26 09:26:38;;;;;;;10.65;4.15;;;11.90;99.90;;;;;;5031972;28;20055;-89
2022/04/26 09:29:17;;;;;;;7.82;3.97;;;12.10;99.90;;;;;;5049299;28;20080;-90
2022/04/26 09:31:43;;;;;;;8.75;3.60;;;12.30;99.90;;;;;;5031844;28;20080;-92
2022/04/26 09:34:14;;;;;;;9.52;3.80;;;12.30;99.90;;;;;;5033434;28;20412;-89
2022/04/26 09:36:48;;;;;;;9.35;3.85;;;12.20;99.90;;;;;;5051308;28;20048;-88
2022/04/26 09:39:32;;;;;;;10.40;3.92;;;12.20;99.90;;;;;;5022443;28;20060;-88
2022/04/26 09:41:58;;;;;;;7.82;4.05;;;12.40;99.90;;;;;;5039128;28;20101;-88
2022/04/26 09:44:34;;;;;;;9.05;4.13;;;12.50;99.90;;;;;;5069332;28;20485;-88
2022/04/26 09:47:00;;;;;;;7.85;4.25;;;12.70;99.90;;;;;;5064022;28;20485;-86
2022/04/26 09:49:26;;;;;;;8.45;4.38;;;12.80;99.90;;;;;;5048959;28;20056;-85
2022/04/26 09:51:58;;;;;;;9.82;4.32;;;12.90;99.90;;;;;;5048567;28;20098;-89
2022/04/26 09:54:24;;;;;;;8.85;4.03;;;12.90;99.90;;;;;;5030245;28;20076;-87
2022/04/26 09:56:50;;;;;;;7.35;3.72;;;13.00;99.90;;;;;;5048830;28;20445;-87
2022/04/26 09:59:29;;;;;;;7.57;4.10;;;13.20;99.90;;;;;;5049192;28;20044;-88
2022/04/26 10:01:57;;;;;;;8.55;3.92;;;13.30;99.90;;;;;;5014768;28;20755;-86
2022/04/26 10:04:26;;;;;;;7.65;3.97;;;13.30;99.90;;;;;;5030985;28;20053;-87
2022/04/26 10:06:56;;;;;;;8.25;3.88;;;13.40;99.90;;;;;;5048188;28;20041;-86
2022/04/26 10:09:24;;;;;;;8.90;3.83;;;13.30;99.90;;;;;;5031346;28;20044;-87
2022/04/26 10:11:54;;;;;;;7.60;3.50;;;13.10;99.90;;;;;;5047989;28;20071;-87
2022/04/26 10:14:20;;;;;;;9.90;3.83;;;13.00;99.90;;;;;;5031012;28;20044;-85
2022/04/26 10:16:46;;;;;;;9.15;3.58;;;13.00;99.90;;;;;;5029592;28;20049;-88
2022/04/26 10:19:12;;;;;;;7.72;3.72;;;13.10;99.90;;;;;;5048270;28;20391;-86
2022/04/26 10:21:38;;;;;;;7.40;4.05;;;13.10;99.90;;;;;;5057632;28;20074;-85
2022/04/26 10:24:20;;;;;;;10.38;4.00;;;13.10;99.90;;;;;;5039394;28;20438;-84
2022/04/26 10:26:46;;;;;;;9.67;4.33;;;13.20;99.90;;;;;;5063699;28;20055;-85
2022/04/26 10:29:14;;;;;;;8.80;3.97;;;13.40;99.90;;;;;;5063817;28;20045;-86
2022/04/26 10:31:55;;;;;;;8.98;4.05;;;13.30;99.90;;;;;;5048399;28;20385;-86
2022/04/26 10:34:23;;;;;;;8.50;3.63;;;13.40;99.90;;;;;;5048847;28;20045;-84
2022/04/26 10:37:02;;;;;;;9.63;4.07;;;13.40;99.90;;;;;;5047474;28;20057;-84
2022/04/26 10:39:32;;;;;;;8.63;4.32;;;13.30;99.90;;;;;;5048967;28;20037;-85
2022/04/26 10:42:00;;;;;;;8.93;4.22;;;13.10;99.90;;;;;;5050648;28;20041;-86
2022/04/26 10:44:28;;;;;;;11.25;4.13;;;13.20;99.90;;;;;;5049887;28;20049;-88
2022/04/26 10:46:55;;;;;;;8.02;3.80;;;13.20;99.90;;;;;;5049898;28;20044;-89
2022/04/26 10:49:29;;;;;;;9.00;3.85;;;13.40;99.90;;;;;;5036782;28;20513;-88
2022/04/26 10:52:14;;;;;;;7.57;3.60;;;13.50;99.90;;;;;;5050328;28;20126;-89
2022/04/26 10:54:51;;;;;;;8.10;3.85;;;13.60;99.90;;;;;;5036870;28;20096;-92
2022/04/26 10:57:23;;;;;;;9.88;4.32;;;13.40;99.20;;;;;;5052578;28;20049;-90
2022/04/26 10:59:56;;;;;;;8.45;3.75;;;13.30;99.90;;;;;;5034123;28;20048;-90
2022/04/26 11:02:23;;;;;;;9.63;4.22;;;13.30;99.90;;;;;;5050415;28;20136;-91
2022/04/26 11:05:13;;;;;;;7.70;3.92;;;13.40;99.90;;;;;;5034358;28;20056;-89
2022/04/26 11:07:44;;;;;;;7.35;3.50;;;13.50;99.30;;;;;;5051487;28;20107;-88
2022/04/26 11:10:11;;;;;;;8.95;4.10;;;13.40;99.20;;;;;;5017497;28;20045;-90
2022/04/26 11:12:39;;;;;;;8.70;3.72;;;13.40;98.30;;;;;;5036916;28;20053;-89
2022/04/26 11:15:11;;;;;;;7.60;3.80;;;13.50;98.30;;;;;;5058325;28;20093;-91
2022/04/26 11:17:37;;;;;;;8.55;3.70;;;13.70;97.20;;;;;;5059613;28;20056;-90
2022/04/26 11:20:12;;;;;;;8.82;3.63;;;13.70;98.00;;;;;;5033278;28;20045;-90
2022/04/26 11:22:47;;;;;;;8.23;3.70;;;13.80;97.10;;;;;;5051804;28;20457;-88
2022/04/26 11:28:06;;;;;;;8.93;4.10;;;13.90;98.80;;;;;;5033244;28;20057;-89
2022/04/26 11:30:37;;;;;;;10.18;4.10;;;14.00;98.40;;;;;;5051796;28;20064;-88
2022/04/26 11:33:08;;;;;;;8.10;3.72;;;14.00;98.50;;;;;;5019073;28;20041;-90
2022/04/26 11:35:35;;;;;;;7.90;3.22;;;14.00;97.60;;;;;;5043857;28;20100;-90
2022/04/26 11:38:10;;;;;;;8.60;3.45;;;14.00;95.60;;;;;;5016298;28;20802;-90
2022/04/26 11:40:42;;;;;;;8.10;3.83;;;14.00;92.80;;;;;;5014285;28;20037;-89
2022/04/26 11:43:14;;;;;;;8.32;3.50;;;14.00;93.50;;;;;;5045640;28;20041;-87
2022/04/26 11:45:43;;;;;;;6.95;3.08;;;14.20;93.90;;;;;;5050242;28;20048;-88
2022/04/26 11:48:14;;;;;;;7.85;3.85;;;14.30;93.60;;;;;;5050603;28;20044;-88
2022/04/26 11:50:41;;;;;;;9.02;4.05;;;14.30;93.60;;;;;;5032431;28;20040;-86
2022/04/26 11:53:12;;;;;;;8.05;3.55;;;14.20;93.60;;;;;;5050599;28;20056;-86
2022/04/26 11:55:43;;;;;;;8.30;3.30;;;14.00;92.90;;;;;;5050978;28;20082;-87
2022/04/26 11:58:15;;;;;;;8.57;3.40;;;13.80;92.50;;;;;;5032560;28;20148;-87
2022/04/26 12:01:07;;;;;;;7.63;3.28;;;13.70;93.00;;;;;;5052555;28;20045;-91
2022/04/26 12:03:49;;;;;;;6.85;3.05;;;13.80;92.30;;;;;;5031701;28;20052;-89
2022/04/26 12:06:17;;;;;;;9.63;3.70;;;14.00;92.80;;;;;;5035935;28;20037;-95
2022/04/26 12:08:45;;;;;;;7.38;3.33;;;14.30;92.80;;;;;;5072923;28;20394;-94
2022/04/26 12:11:20;;;;;;;9.38;3.30;;;14.40;90.80;;;;;;5060671;28;20064;-93
2022/04/26 12:14:08;;;;;;;8.23;3.38;;;14.50;89.60;;;;;;5078183;28;20073;-94
2022/04/26 12:16:44;;;;;;;7.68;3.30;;;14.40;86.20;;;;;;5061397;28;20037;-92
2022/04/26 12:19:10;;;;;;;8.88;3.30;;;14.30;88.30;;;;;;5065256;28;20063;-95
2022/04/26 12:21:52;;;;;;;8.55;3.13;;;14.20;88.80;;;;;;5058179;28;20078;-95
2022/04/26 12:24:23;;;;;;;8.38;3.15;;;14.10;88.20;;;;;;5032928;28;20045;-94
2022/04/26 12:26:52;;;;;;;7.63;3.50;;;14.10;88.70;;;;;;5069636;28;20102;-95
2022/04/26 12:29:18;;;;;;;7.90;2.80;;;14.10;86.10;;;;;;5044042;28;20127;-95
2022/04/26 12:31:46;;;;;;;5.40;2.80;;;14.00;82.20;;;;;;5055772;28;20452;-93
2022/04/26 12:34:20;;;;;;;7.05;2.78;;;14.00;80.70;;;;;;5062762;28;20040;-93
2022/04/26 12:36:59;;;;;;;5.97;2.70;;;14.10;79.60;;;;;;5042759;28;20057;-94
2022/04/26 12:39:44;;;;;;;7.18;3.08;;;14.10;80.50;;;;;;5071191;28;20049;-93
2022/04/26 12:42:28;;;;;;;7.97;2.60;;;14.30;79.60;;;;;;5061608;28;20170;-92
2022/04/26 12:44:57;;;;;;;7.97;3.00;;;14.40;78.00;;;;;;5053051;28;20064;-89
2022/04/26 12:50:33;;;;;;;7.20;3.10;;;14.50;78.20;;;;;;5059567;28;20041;-89
2022/04/26 12:53:01;;;;;;;7.35;3.38;;;14.60;79.10;;;;;;5080855;28;20446;-91
2022/04/26 12:55:28;;;;;;;9.02;3.53;;;14.60;78.40;;;;;;5036053;28;20049;-89
2022/04/26 12:57:56;;;;;;;8.35;3.28;;;14.60;76.70;;;;;;5034094;28;20049;-91
2022/04/26 13:00:23;;;;;;;7.28;3.10;;;14.50;77.80;;;;;;5050255;28;20091;-88
2022/04/26 13:02:51;;;;;;;8.93;3.45;;;14.40;77.20;;;;;;5048812;28;20036;-89
2022/04/26 13:05:17;;;;;;;7.47;3.90;;;14.20;78.50;;;;;;5031927;28;20392;-89
2022/04/26 13:07:46;;;;;;;6.45;2.83;;;14.10;77.80;;;;;;5031428;28;20049;-90
2022/04/26 13:10:12;;;;;;;9.63;3.30;;;14.10;78.20;;;;;;5049881;28;20444;-88
2022/04/26 13:12:38;;;;;;;6.97;2.88;;;14.20;77.80;;;;;;5032197;28;20049;-89
2022/04/26 13:15:05;;;;;;;7.85;3.10;;;14.40;78.30;;;;;;5049240;28;20036;-88
2022/04/26 13:17:30;;;;;;;7.35;3.38;;;14.60;79.60;;;;;;5049746;28;20408;-88
2022/04/26 13:19:56;;;;;;;7.13;3.00;;;14.80;78.40;;;;;;5051376;28;20316;-89
2022/04/26 13:22:22;;;;;;;7.57;3.65;;;14.90;76.40;;;;;;5060953;28;20037;-90
2022/04/26 13:24:49;;;;;;;9.13;3.63;;;14.90;76.50;;;;;;5054717;28;20052;-90
2022/04/26 13:27:16;;;;;;;7.13;2.90;;;14.80;76.60;;;;;;5049896;28;20103;-92
2022/04/26 13:29:41;;;;;;;8.20;3.67;;;14.80;76.30;;;;;;5031348;28;20052;-92
2022/04/26 13:32:07;;;;;;;8.05;3.10;;;14.80;74.60;;;;;;5049274;28;20041;-89
2022/04/26 13:34:33;;;;;;;6.53;3.28;;;14.60;74.30;;;;;;5050037;28;20444;-89
2022/04/26 13:36:59;;;;;;;7.20;3.15;;;14.60;73.40;;;;;;5048592;28;20076;-88
2022/04/26 13:39:24;;;;;;;8.32;3.00;;;14.50;73.60;;;;;;5049282;28;20037;-92
2022/04/26 13:41:50;;;;;;;6.35;3.05;;;14.50;74.00;;;;;;5031391;28;20380;-90
2022/04/26 13:44:19;;;;;;;7.72;2.78;;;14.50;72.40;;;;;;5049213;28;20040;-89
2022/04/26 13:46:45;;;;;;;7.32;3.00;;;14.50;71.70;;;;;;5049180;28;20049;-91
2022/04/26 13:49:11;;;;;;;6.80;2.97;;;14.40;71.10;;;;;;5031304;28;20049;-91
2022/04/26 13:51:37;;;;;;;7.40;2.67;;;14.30;70.80;;;;;;5031863;28;20037;-89
2022/04/26 13:54:02;;;;;;;5.47;2.88;;;14.30;70.70;;;;;;5048747;28;20041;-88
2022/04/26 13:56:28;;;;;;;6.63;3.10;;;14.20;71.20;;;;;;5031539;28;20040;-89
2022/04/26 13:58:53;;;;;;;5.57;2.80;;;14.20;72.40;;;;;;5049061;28;20123;-89
2022/04/26 14:01:19;;;;;;;7.07;3.03;;;14.10;72.60;;;;;;5048926;28;20095;-90
2022/04/26 14:03:45;;;;;;;5.70;2.67;;;14.10;73.20;;;;;;5049046;28;20052;-88
2022/04/26 14:06:12;;;;;;;6.93;2.70;;;14.10;72.60;;;;;;5064504;28;20492;-91
2022/04/26 14:08:38;;;;;;;8.40;2.80;;;14.10;72.60;;;;;;5031659;28;20053;-91
2022/04/26 14:11:04;;;;;;;7.47;3.20;;;14.20;73.60;;;;;;5048022;28;20094;-87
2022/04/26 14:21:46;;;;;;;8.45;3.00;;;14.10;73.60;;;;;;5032168;28;20045;-89
2022/04/26 14:21:49;;;;;;;7.97;3.15;;;14.10;74.90;;;;;;5036402;28;20404;-89
2022/04/26 14:24:14;;;;;;;6.45;2.80;;;14.10;74.60;;;;;;5026259;28;20045;-90
2022/04/26 14:26:42;;;;;;;7.28;3.17;;;14.20;74.40;;;;;;5029414;28;20143;-85
2022/04/26 14:29:08;;;;;;;7.45;3.00;;;14.20;74.50;;;;;;5018714;28;20041;-87
2022/04/26 14:31:35;;;;;;;8.40;3.30;;;14.20;75.40;;;;;;5050356;28;20040;-86
2022/04/26 14:34:01;;;;;;;7.65;3.08;;;14.30;76.00;;;;;;5051986;28;20547;-88
2022/04/26 14:36:27;;;;;;;7.55;3.67;;;14.40;75.20;;;;;;5033223;28;20477;-91
2022/04/26 14:38:53;;;;;;;7.75;3.00;;;14.40;74.50;;;;;;5044752;28;20102;-89
2022/04/26 14:41:18;;;;;;;7.78;3.20;;;14.40;74.00;;;;;;5054882;28;20029;-89
2022/04/26 14:43:44;;;;;;;6.55;3.00;;;14.50;74.80;;;;;;5052251;28;20045;-91
2022/04/26 14:46:09;;;;;;;7.75;3.20;;;14.50;73.90;;;;;;5055831;28;20041;-94
2022/04/26 14:48:36;;;;;;;5.68;2.55;;;14.50;73.50;;;;;;5056418;28;20045;-90
2022/04/26 14:51:02;;;;;;;7.03;2.85;;;14.60;73.50;;;;;;5036098;28;20688;-92
2022/04/26 14:53:27;;;;;;;5.95;3.13;;;14.60;72.90;;;;;;5039811;28;20047;-92
2022/04/26 14:55:53;;;;;;;6.80;2.97;;;14.60;72.50;;;;;;5043213;28;20040;-86
2022/04/26 14:58:19;;;;;;;6.15;2.97;;;14.40;73.10;;;;;;5035223;28;20048;-90
2022/04/26 15:00:45;;;;;;;8.18;3.05;;;14.40;74.20;;;;;;5038319;28;20044;-90
2022/04/26 15:03:11;;;;;;;7.70;3.20;;;14.40;73.90;;;;;;5051515;28;20139;-89
2022/04/26 15:05:36;;;;;;;7.55;3.53;;;14.30;75.00;;;;;;5055156;28;20037;-89
2022/04/26 15:10:46;;;;;;;7.53;3.22;;;14.20;74.80;;;;;;5047621;28;20044;-88
2022/04/26 15:18:40;;;;;;;7.93;3.38;;;13.90;76.70;;;;;;5038193;28;20041;-94
2022/04/26 15:21:09;;;;;;;8.25;3.20;;;14.10;76.90;;;;;;5043295;28;20124;-91
2022/04/26 15:23:35;;;;;;;7.32;3.50;;;14.20;76.70;;;;;;5051796;28;20037;-90
2022/04/26 15:26:06;;;;;;;6.55;3.22;;;14.30;76.70;;;;;;5043639;28;20052;-93
2022/04/26 15:28:32;;;;;;;7.37;3.63;;;14.30;76.70;;;;;;5049224;28;20045;-93
2022/04/26 15:30:58;;;;;;;7.60;3.40;;;14.40;77.40;;;;;;5074015;28;20040;-90
2022/04/26 15:33:24;;;;;;;7.50;3.60;;;14.50;77.50;;;;;;5060588;28;20454;-94
2022/04/26 15:35:51;;;;;;;9.63;3.63;;;14.60;77.10;;;;;;5043375;28;20497;-96
2022/04/26 15:38:18;;;;;;;8.15;3.75;;;14.70;76.60;;;;;;5064791;28;20087;-95
2022/04/26 15:40:46;;;;;;;8.07;3.58;;;14.70;76.80;;;;;;5043271;28;20083;-94
2022/04/26 15:43:13;;;;;;;8.30;3.65;;;14.70;76.90;;;;;;5056707;28;20123;-93
2022/04/26 15:45:39;;;;;;;8.10;3.53;;;14.50;77.60;;;;;;5043654;28;20044;-94
2022/04/26 15:48:05;;;;;;;7.20;3.50;;;14.50;78.10;;;;;;5044444;28;20044;-92
2022/04/26 15:50:31;;;;;;;8.30;4.07;;;14.50;77.60;;;;;;5045962;28;20041;-94
2022/04/26 15:52:57;;;;;;;6.38;3.10;;;14.40;78.30;;;;;;5055599;28;20139;-94
2022/04/26 15:55:23;;;;;;;8.73;3.20;;;14.30;78.60;;;;;;5049439;28;20108;-92
2022/04/26 15:57:54;;;;;;;9.32;3.35;;;14.30;78.70;;;;;;5042762;28;20063;-95
2022/04/26 16:00:20;;;;;;;6.13;3.10;;;14.30;79.10;;;;;;5071081;28;20048;-95
2022/04/26 16:02:51;;;;;;;7.97;3.40;;;14.30;78.60;;;;;;5077599;28;20077;-94
2022/04/26 16:05:16;;;;;;;8.45;3.65;;;14.30;78.80;;;;;;5064333;28;20045;-94
2022/04/26 16:07:42;;;;;;;7.10;3.50;;;14.30;78.90;;;;;;5052933;28;20048;-91
2022/04/26 16:21:05;;;;;;;8.07;3.63;;;14.70;77.30;;;;;;5057966;28;20045;-91
2022/04/26 16:23:31;;;;;;;6.60;3.20;;;14.60;76.50;;;;;;5020098;28;20052;-92
2022/04/26 16:26:01;;;;;;;7.40;3.38;;;14.50;77.40;;;;;;5041522;28;20108;-93
2022/04/26 16:28:31;;;;;;;7.05;3.15;;;14.50;77.30;;;;;;5056930;28;20037;-91
2022/04/26 16:30:57;;;;;;;6.85;3.60;;;14.90;76.60;;;;;;5018139;28;20396;-86
2022/04/26 16:33:23;;;;;;;7.20;3.30;;;15.30;75.00;;;;;;5063692;28;20091;-87
2022/04/26 16:35:49;;;;;;;7.28;3.30;;;15.50;74.50;;;;;;5015016;28;20071;-88
2022/04/26 16:38:17;;;;;;;8.70;3.70;;;15.90;73.20;;;;;;5024425;28;20501;-89
2022/04/26 16:40:44;;;;;;;6.93;2.95;;;15.90;71.40;;;;;;5040551;28;20067;-89
2022/04/26 16:43:11;;;;;;;7.47;3.33;;;15.30;71.60;;;;;;5023109;28;20076;-87
2022/04/26 16:45:36;;;;;;;7.22;3.30;;;14.80;73.00;;;;;;5032211;28;20044;-88
2022/04/26 16:48:02;;;;;;;6.72;3.35;;;14.50;74.10;;;;;;5032617;28;20048;-87
2022/04/26 16:50:28;;;;;;;7.82;3.38;;;14.20;74.90;;;;;;5032029;28;20040;-87
2022/04/26 16:52:54;;;;;;;7.80;3.33;;;13.80;76.10;;;;;;5010817;28;20043;-87
2022/04/26 16:55:21;;;;;;;6.72;3.47;;;13.60;77.40;;;;;;5047018;28;20102;-87
2022/04/26 16:57:47;;;;;;;8.00;3.55;;;13.50;77.90;;;;;;5047107;28;20052;-88
2022/04/26 17:00:16;;;;;;;8.13;3.53;;;13.30;78.60;;;;;;5030540;28;20397;-87
2022/04/26 17:02:42;;;;;;;7.07;3.35;;;13.10;79.80;;;;;;5030655;28;20409;-91
2022/04/26 17:05:08;;;;;;;8.35;3.85;;;13.00;80.20;;;;;;5029059;28;20033;-88